sensor_id;sensor_type;location;lat;lon;timestamp;P1;durP1;ratioP1;P2;durP2;ratioP2
56037;SDS011;41907;47.848;9.000;2024-02-21T00:02:24;10.88;;;5.57;;
56037;SDS011;41907;47.848;9.000;2024-02-21T00:04:49;11.07;;;5.15;;
56037;SDS011;41907;47.848;9.000;2024-02-21T00:07:15;9.60;;;5.10;;
56037;SDS011;41907;47.848;9.000;2024-02-21T00:09:40;10.77;;;5.40;;
56037;SDS011;41907;47.848;9.000;2024-02-21T00:12:05;13.75;;;5.82;;
56037;SDS011;41907;47.848;9.000;2024-02-21T00:14:31;13.88;;;5.90;;
56037;SDS011;41907;47.848;9.000;2024-02-21T00:16:56;17.92;;;5.60;;
56037;SDS011;41907;47.848;9.000;2024-02-21T00:19:22;13.60;;;6.28;;
56037;SDS011;41907;47.848;9.000;2024-02-21T00:21:47;14.70;;;5.88;;
56037;SDS011;41907;47.848;9.000;2024-02-21T00:24:12;9.68;;;5.28;;
56037;SDS011;41907;47.848;9.000;2024-02-21T00:26:38;10.73;;;5.35;;
56037;SDS011;41907;47.848;9.000;2024-02-21T00:29:03;11.40;;;5.72;;
56037;SDS011;41907;47.848;9.000;2024-02-21T00:31:28;14.20;;;5.57;;
56037;SDS011;41907;47.848;9.000;2024-02-21T00:33:54;12.73;;;5.70;;
56037;SDS011;41907;47.848;9.000;2024-02-21T00:36:19;10.27;;;5.15;;
56037;SDS011;41907;47.848;9.000;2024-02-21T00:38:44;10.38;;;5.13;;
56037;SDS011;41907;47.848;9.000;2024-02-21T00:41:10;10.75;;;5.03;;
56037;SDS011;41907;47.848;9.000;2024-02-21T00:43:35;12.45;;;4.97;;
56037;SDS011;41907;47.848;9.000;2024-02-21T00:46:00;10.63;;;4.35;;
56037;SDS011;41907;47.848;9.000;2024-02-21T00:48:26;16.15;;;5.53;;
56037;SDS011;41907;47.848;9.000;2024-02-21T00:50:51;11.63;;;5.13;;
56037;SDS011;41907;47.848;9.000;2024-02-21T00:53:16;8.88;;;5.05;;
56037;SDS011;41907;47.848;9.000;2024-02-21T00:55:42;10.13;;;4.65;;
56037;SDS011;41907;47.848;9.000;2024-02-21T00:58:08;13.60;;;5.63;;
56037;SDS011;41907;47.848;9.000;2024-02-21T01:00:34;13.20;;;5.90;;
56037;SDS011;41907;47.848;9.000;2024-02-21T01:02:59;14.43;;;5.57;;
56037;SDS011;41907;47.848;9.000;2024-02-21T01:05:24;13.95;;;5.05;;
56037;SDS011;41907;47.848;9.000;2024-02-21T01:07:52;12.45;;;5.22;;
56037;SDS011;41907;47.848;9.000;2024-02-21T01:10:17;8.80;;;4.35;;
56037;SDS011;41907;47.848;9.000;2024-02-21T01:12:43;12.45;;;4.80;;
56037;SDS011;41907;47.848;9.000;2024-02-21T01:15:08;12.65;;;4.55;;
56037;SDS011;41907;47.848;9.000;2024-02-21T01:17:34;11.43;;;4.97;;
56037;SDS011;41907;47.848;9.000;2024-02-21T01:19:59;10.07;;;5.32;;
56037;SDS011;41907;47.848;9.000;2024-02-21T01:22:24;10.73;;;5.10;;
56037;SDS011;41907;47.848;9.000;2024-02-21T01:24:50;12.15;;;5.10;;
56037;SDS011;41907;47.848;9.000;2024-02-21T01:27:15;8.20;;;4.15;;
56037;SDS011;41907;47.848;9.000;2024-02-21T01:29:41;11.55;;;4.38;;
56037;SDS011;41907;47.848;9.000;2024-02-21T01:32:06;8.48;;;5.35;;
56037;SDS011;41907;47.848;9.000;2024-02-21T01:34:32;9.60;;;4.55;;
56037;SDS011;41907;47.848;9.000;2024-02-21T01:36:57;10.60;;;4.22;;
56037;SDS011;41907;47.848;9.000;2024-02-21T01:39:24;9.90;;;4.63;;
56037;SDS011;41907;47.848;9.000;2024-02-21T01:41:49;7.43;;;4.13;;
56037;SDS011;41907;47.848;9.000;2024-02-21T01:44:14;7.50;;;3.95;;
56037;SDS011;41907;47.848;9.000;2024-02-21T01:46:40;9.93;;;3.80;;
56037;SDS011;41907;47.848;9.000;2024-02-21T01:49:05;11.52;;;4.10;;
56037;SDS011;41907;47.848;9.000;2024-02-21T01:51:31;9.20;;;3.85;;
56037;SDS011;41907;47.848;9.000;2024-02-21T01:53:57;9.63;;;4.05;;
56037;SDS011;41907;47.848;9.000;2024-02-21T01:56:23;8.88;;;4.05;;
56037;SDS011;41907;47.848;9.000;2024-02-21T01:58:49;8.93;;;3.90;;
56037;SDS011;41907;47.848;9.000;2024-02-21T02:01:15;8.38;;;3.88;;
56037;SDS011;41907;47.848;9.000;2024-02-21T02:03:42;10.45;;;3.83;;
56037;SDS011;41907;47.848;9.000;2024-02-21T02:06:07;8.32;;;3.63;;
56037;SDS011;41907;47.848;9.000;2024-02-21T02:08:33;10.38;;;5.13;;
56037;SDS011;41907;47.848;9.000;2024-02-21T02:10:59;8.48;;;3.97;;
56037;SDS011;41907;47.848;9.000;2024-02-21T02:13:24;6.63;;;4.22;;
56037;SDS011;41907;47.848;9.000;2024-02-21T02:15:50;9.18;;;4.40;;
56037;SDS011;41907;47.848;9.000;2024-02-21T02:18:16;12.13;;;4.63;;
56037;SDS011;41907;47.848;9.000;2024-02-21T02:20:43;10.77;;;4.45;;
56037;SDS011;41907;47.848;9.000;2024-02-21T02:23:10;9.10;;;4.18;;
56037;SDS011;41907;47.848;9.000;2024-02-21T02:25:45;10.50;;;4.63;;
56037;SDS011;41907;47.848;9.000;2024-02-21T02:28:14;9.98;;;4.50;;
56037;SDS011;41907;47.848;9.000;2024-02-21T02:30:40;8.90;;;3.97;;
56037;SDS011;41907;47.848;9.000;2024-02-21T02:33:05;8.65;;;4.28;;
56037;SDS011;41907;47.848;9.000;2024-02-21T02:35:31;11.13;;;5.35;;
56037;SDS011;41907;47.848;9.000;2024-02-21T02:37:57;13.77;;;4.57;;
56037;SDS011;41907;47.848;9.000;2024-02-21T02:40:22;11.50;;;5.07;;
56037;SDS011;41907;47.848;9.000;2024-02-21T02:42:48;8.25;;;4.15;;
56037;SDS011;41907;47.848;9.000;2024-02-21T02:45:17;12.63;;;5.63;;
56037;SDS011;41907;47.848;9.000;2024-02-21T02:47:46;9.00;;;3.78;;
56037;SDS011;41907;47.848;9.000;2024-02-21T02:50:11;7.78;;;4.78;;
56037;SDS011;41907;47.848;9.000;2024-02-21T02:52:37;6.13;;;3.88;;
56037;SDS011;41907;47.848;9.000;2024-02-21T02:55:03;9.60;;;4.05;;
56037;SDS011;41907;47.848;9.000;2024-02-21T02:57:29;7.55;;;4.00;;
56037;SDS011;41907;47.848;9.000;2024-02-21T02:59:54;9.85;;;4.03;;
56037;SDS011;41907;47.848;9.000;2024-02-21T03:02:20;11.40;;;4.32;;
56037;SDS011;41907;47.848;9.000;2024-02-21T03:04:45;8.90;;;3.80;;
56037;SDS011;41907;47.848;9.000;2024-02-21T03:07:10;8.90;;;3.88;;
56037;SDS011;41907;47.848;9.000;2024-02-21T03:09:38;10.52;;;4.00;;
56037;SDS011;41907;47.848;9.000;2024-02-21T03:12:05;8.07;;;3.45;;
56037;SDS011;41907;47.848;9.000;2024-02-21T03:14:31;11.23;;;4.38;;
56037;SDS011;41907;47.848;9.000;2024-02-21T03:16:57;7.22;;;3.83;;
56037;SDS011;41907;47.848;9.000;2024-02-21T03:19:23;10.63;;;3.97;;
56037;SDS011;41907;47.848;9.000;2024-02-21T03:21:49;6.00;;;3.38;;
56037;SDS011;41907;47.848;9.000;2024-02-21T03:24:15;10.98;;;4.47;;
56037;SDS011;41907;47.848;9.000;2024-02-21T03:26:43;14.57;;;4.53;;
56037;SDS011;41907;47.848;9.000;2024-02-21T03:29:10;9.82;;;4.35;;
56037;SDS011;41907;47.848;9.000;2024-02-21T03:31:36;7.97;;;3.90;;
56037;SDS011;41907;47.848;9.000;2024-02-21T03:34:02;10.73;;;4.20;;
56037;SDS011;41907;47.848;9.000;2024-02-21T03:36:27;8.57;;;3.75;;
56037;SDS011;41907;47.848;9.000;2024-02-21T03:38:54;7.25;;;3.55;;
56037;SDS011;41907;47.848;9.000;2024-02-21T03:41:19;8.43;;;3.55;;
56037;SDS011;41907;47.848;9.000;2024-02-21T03:43:45;7.85;;;3.33;;
56037;SDS011;41907;47.848;9.000;2024-02-21T03:46:10;9.45;;;3.42;;
56037;SDS011;41907;47.848;9.000;2024-02-21T03:48:35;11.35;;;3.47;;
56037;SDS011;41907;47.848;9.000;2024-02-21T03:51:01;8.30;;;3.60;;
56037;SDS011;41907;47.848;9.000;2024-02-21T03:53:27;7.50;;;3.63;;
56037;SDS011;41907;47.848;9.000;2024-02-21T03:55:53;9.20;;;3.88;;
56037;SDS011;41907;47.848;9.000;2024-02-21T03:58:19;11.80;;;4.15;;
56037;SDS011;41907;47.848;9.000;2024-02-21T04:00:44;9.82;;;4.22;;
56037;SDS011;41907;47.848;9.000;2024-02-21T04:03:10;8.93;;;4.10;;
56037;SDS011;41907;47.848;9.000;2024-02-21T04:05:35;10.63;;;3.90;;
56037;SDS011;41907;47.848;9.000;2024-02-21T04:08:02;9.52;;;4.07;;
56037;SDS011;41907;47.848;9.000;2024-02-21T04:10:29;7.28;;;3.72;;
56037;SDS011;41907;47.848;9.000;2024-02-21T04:12:55;9.07;;;3.83;;
56037;SDS011;41907;47.848;9.000;2024-02-21T04:15:20;9.50;;;3.53;;
56037;SDS011;41907;47.848;9.000;2024-02-21T04:17:45;10.57;;;4.03;;
56037;SDS011;41907;47.848;9.000;2024-02-21T04:20:14;8.10;;;4.15;;
56037;SDS011;41907;47.848;9.000;2024-02-21T04:22:41;10.52;;;4.07;;
56037;SDS011;41907;47.848;9.000;2024-02-21T04:25:08;7.07;;;3.97;;
56037;SDS011;41907;47.848;9.000;2024-02-21T04:27:33;7.55;;;3.90;;
56037;SDS011;41907;47.848;9.000;2024-02-21T04:29:59;9.60;;;4.50;;
56037;SDS011;41907;47.848;9.000;2024-02-21T04:32:24;11.57;;;4.10;;
56037;SDS011;41907;47.848;9.000;2024-02-21T04:34:52;14.15;;;3.97;;
56037;SDS011;41907;47.848;9.000;2024-02-21T04:37:17;7.90;;;4.05;;
56037;SDS011;41907;47.848;9.000;2024-02-21T04:39:43;10.10;;;4.65;;
56037;SDS011;41907;47.848;9.000;2024-02-21T04:42:09;8.13;;;4.40;;
56037;SDS011;41907;47.848;9.000;2024-02-21T04:44:34;9.18;;;4.15;;
56037;SDS011;41907;47.848;9.000;2024-02-21T04:46:59;9.18;;;4.82;;
56037;SDS011;41907;47.848;9.000;2024-02-21T04:49:25;6.32;;;3.97;;
56037;SDS011;41907;47.848;9.000;2024-02-21T04:51:50;8.10;;;4.25;;
56037;SDS011;41907;47.848;9.000;2024-02-21T04:54:15;10.13;;;5.25;;
56037;SDS011;41907;47.848;9.000;2024-02-21T04:56:41;10.50;;;4.80;;
56037;SDS011;41907;47.848;9.000;2024-02-21T04:59:06;9.43;;;4.57;;
56037;SDS011;41907;47.848;9.000;2024-02-21T05:01:31;10.23;;;3.97;;
56037;SDS011;41907;47.848;9.000;2024-02-21T05:03:57;7.32;;;3.75;;
56037;SDS011;41907;47.848;9.000;2024-02-21T05:06:22;8.07;;;4.10;;
56037;SDS011;41907;47.848;9.000;2024-02-21T05:08:47;13.45;;;6.15;;
56037;SDS011;41907;47.848;9.000;2024-02-21T05:11:14;13.25;;;6.55;;
56037;SDS011;41907;47.848;9.000;2024-02-21T05:13:39;9.98;;;5.35;;
56037;SDS011;41907;47.848;9.000;2024-02-21T05:16:05;9.07;;;5.10;;
56037;SDS011;41907;47.848;9.000;2024-02-21T05:18:31;12.05;;;6.10;;
56037;SDS011;41907;47.848;9.000;2024-02-21T05:20:56;12.95;;;5.80;;
56037;SDS011;41907;47.848;9.000;2024-02-21T05:23:22;10.20;;;4.93;;
56037;SDS011;41907;47.848;9.000;2024-02-21T05:25:47;12.07;;;5.47;;
56037;SDS011;41907;47.848;9.000;2024-02-21T05:28:12;14.60;;;5.80;;
56037;SDS011;41907;47.848;9.000;2024-02-21T05:30:38;10.05;;;5.53;;
56037;SDS011;41907;47.848;9.000;2024-02-21T05:33:06;12.68;;;5.32;;
56037;SDS011;41907;47.848;9.000;2024-02-21T05:35:32;10.85;;;4.70;;
56037;SDS011;41907;47.848;9.000;2024-02-21T05:37:57;11.85;;;5.13;;
56037;SDS011;41907;47.848;9.000;2024-02-21T05:40:24;12.40;;;5.25;;
56037;SDS011;41907;47.848;9.000;2024-02-21T05:42:50;9.55;;;5.15;;
56037;SDS011;41907;47.848;9.000;2024-02-21T05:45:16;10.13;;;5.13;;
56037;SDS011;41907;47.848;9.000;2024-02-21T05:47:42;11.10;;;6.05;;
56037;SDS011;41907;47.848;9.000;2024-02-21T05:50:08;10.73;;;4.95;;
56037;SDS011;41907;47.848;9.000;2024-02-21T05:52:33;7.97;;;4.38;;
56037;SDS011;41907;47.848;9.000;2024-02-21T05:54:59;6.60;;;4.40;;
56037;SDS011;41907;47.848;9.000;2024-02-21T05:57:24;9.43;;;5.25;;
56037;SDS011;41907;47.848;9.000;2024-02-21T05:59:49;12.50;;;4.90;;
56037;SDS011;41907;47.848;9.000;2024-02-21T06:02:15;9.88;;;5.15;;
56037;SDS011;41907;47.848;9.000;2024-02-21T06:04:40;11.55;;;6.22;;
56037;SDS011;41907;47.848;9.000;2024-02-21T06:07:07;10.38;;;6.22;;
56037;SDS011;41907;47.848;9.000;2024-02-21T06:09:33;10.25;;;6.60;;
56037;SDS011;41907;47.848;9.000;2024-02-21T06:11:58;9.85;;;6.35;;
56037;SDS011;41907;47.848;9.000;2024-02-21T06:14:23;12.65;;;6.40;;
56037;SDS011;41907;47.848;9.000;2024-02-21T06:16:49;10.18;;;6.57;;
56037;SDS011;41907;47.848;9.000;2024-02-21T06:19:14;12.63;;;7.28;;
56037;SDS011;41907;47.848;9.000;2024-02-21T06:21:40;10.88;;;6.90;;
56037;SDS011;41907;47.848;9.000;2024-02-21T06:24:05;10.93;;;6.82;;
56037;SDS011;41907;47.848;9.000;2024-02-21T06:26:31;12.70;;;6.68;;
56037;SDS011;41907;47.848;9.000;2024-02-21T06:28:56;10.40;;;6.30;;
56037;SDS011;41907;47.848;9.000;2024-02-21T06:31:22;13.82;;;7.38;;
56037;SDS011;41907;47.848;9.000;2024-02-21T06:33:47;16.98;;;7.68;;
56037;SDS011;41907;47.848;9.000;2024-02-21T06:36:13;13.88;;;7.55;;
56037;SDS011;41907;47.848;9.000;2024-02-21T06:38:38;15.43;;;7.93;;
56037;SDS011;41907;47.848;9.000;2024-02-21T06:41:03;13.38;;;7.60;;
56037;SDS011;41907;47.848;9.000;2024-02-21T06:43:29;18.52;;;7.70;;
56037;SDS011;41907;47.848;9.000;2024-02-21T06:45:54;15.80;;;7.57;;
56037;SDS011;41907;47.848;9.000;2024-02-21T06:48:21;12.57;;;7.13;;
56037;SDS011;41907;47.848;9.000;2024-02-21T06:50:47;13.00;;;7.20;;
56037;SDS011;41907;47.848;9.000;2024-02-21T06:53:12;15.70;;;8.05;;
56037;SDS011;41907;47.848;9.000;2024-02-21T06:55:37;13.02;;;7.07;;
56037;SDS011;41907;47.848;9.000;2024-02-21T06:58:03;14.00;;;7.07;;
56037;SDS011;41907;47.848;9.000;2024-02-21T07:00:29;13.48;;;7.43;;
56037;SDS011;41907;47.848;9.000;2024-02-21T07:02:54;13.50;;;7.72;;
56037;SDS011;41907;47.848;9.000;2024-02-21T07:05:20;12.85;;;7.47;;
56037;SDS011;41907;47.848;9.000;2024-02-21T07:07:45;14.30;;;8.15;;
56037;SDS011;41907;47.848;9.000;2024-02-21T07:10:11;10.90;;;6.88;;
56037;SDS011;41907;47.848;9.000;2024-02-21T07:12:36;12.02;;;6.97;;
56037;SDS011;41907;47.848;9.000;2024-02-21T07:15:06;16.52;;;7.80;;
56037;SDS011;41907;47.848;9.000;2024-02-21T07:17:32;11.95;;;7.32;;
56037;SDS011;41907;47.848;9.000;2024-02-21T07:19:57;11.65;;;7.13;;
56037;SDS011;41907;47.848;9.000;2024-02-21T07:22:24;13.55;;;7.18;;
56037;SDS011;41907;47.848;9.000;2024-02-21T07:24:49;18.85;;;8.90;;
56037;SDS011;41907;47.848;9.000;2024-02-21T07:27:15;15.35;;;9.02;;
56037;SDS011;41907;47.848;9.000;2024-02-21T07:29:40;18.30;;;10.35;;
56037;SDS011;41907;47.848;9.000;2024-02-21T07:32:06;15.60;;;9.23;;
56037;SDS011;41907;47.848;9.000;2024-02-21T07:34:31;19.15;;;9.18;;
56037;SDS011;41907;47.848;9.000;2024-02-21T07:36:57;15.45;;;9.13;;
56037;SDS011;41907;47.848;9.000;2024-02-21T07:39:22;15.93;;;8.07;;
56037;SDS011;41907;47.848;9.000;2024-02-21T07:41:48;17.70;;;8.57;;
56037;SDS011;41907;47.848;9.000;2024-02-21T07:44:14;18.83;;;9.02;;
56037;SDS011;41907;47.848;9.000;2024-02-21T07:46:40;15.63;;;7.00;;
56037;SDS011;41907;47.848;9.000;2024-02-21T07:49:05;12.07;;;5.95;;
56037;SDS011;41907;47.848;9.000;2024-02-21T07:51:31;9.77;;;5.53;;
56037;SDS011;41907;47.848;9.000;2024-02-21T07:53:56;7.65;;;4.93;;
56037;SDS011;41907;47.848;9.000;2024-02-21T07:56:22;12.20;;;6.10;;
56037;SDS011;41907;47.848;9.000;2024-02-21T07:58:47;13.65;;;6.90;;
56037;SDS011;41907;47.848;9.000;2024-02-21T08:01:17;13.55;;;8.20;;
56037;SDS011;41907;47.848;9.000;2024-02-21T08:03:46;13.02;;;8.38;;
56037;SDS011;41907;47.848;9.000;2024-02-21T08:06:12;11.98;;;7.57;;
56037;SDS011;41907;47.848;9.000;2024-02-21T08:08:38;15.07;;;6.70;;
56037;SDS011;41907;47.848;9.000;2024-02-21T08:11:04;9.77;;;7.40;;
56037;SDS011;41907;47.848;9.000;2024-02-21T08:13:29;12.18;;;7.70;;
56037;SDS011;41907;47.848;9.000;2024-02-21T08:15:54;12.02;;;7.38;;
56037;SDS011;41907;47.848;9.000;2024-02-21T08:18:20;14.43;;;7.45;;
56037;SDS011;41907;47.848;9.000;2024-02-21T08:20:45;13.02;;;6.68;;
56037;SDS011;41907;47.848;9.000;2024-02-21T08:23:11;8.90;;;6.00;;
56037;SDS011;41907;47.848;9.000;2024-02-21T08:25:36;12.70;;;7.22;;
56037;SDS011;41907;47.848;9.000;2024-02-21T08:28:01;12.77;;;6.78;;
56037;SDS011;41907;47.848;9.000;2024-02-21T08:30:27;10.65;;;6.63;;
56037;SDS011;41907;47.848;9.000;2024-02-21T08:32:52;11.02;;;6.68;;
56037;SDS011;41907;47.848;9.000;2024-02-21T08:35:19;10.60;;;7.20;;
56037;SDS011;41907;47.848;9.000;2024-02-21T08:37:47;14.35;;;7.50;;
56037;SDS011;41907;47.848;9.000;2024-02-21T08:40:13;17.13;;;7.97;;
56037;SDS011;41907;47.848;9.000;2024-02-21T08:42:42;14.40;;;8.02;;
56037;SDS011;41907;47.848;9.000;2024-02-21T08:45:09;13.98;;;8.23;;
56037;SDS011;41907;47.848;9.000;2024-02-21T08:47:34;14.85;;;8.55;;
56037;SDS011;41907;47.848;9.000;2024-02-21T08:50:03;14.57;;;8.30;;
56037;SDS011;41907;47.848;9.000;2024-02-21T08:52:28;14.57;;;8.55;;
56037;SDS011;41907;47.848;9.000;2024-02-21T08:54:53;22.63;;;10.88;;
56037;SDS011;41907;47.848;9.000;2024-02-21T08:57:19;23.58;;;11.25;;
56037;SDS011;41907;47.848;9.000;2024-02-21T08:59:45;15.70;;;9.00;;
56037;SDS011;41907;47.848;9.000;2024-02-21T09:02:10;12.73;;;9.10;;
56037;SDS011;41907;47.848;9.000;2024-02-21T09:04:36;9.43;;;6.60;;
56037;SDS011;41907;47.848;9.000;2024-02-21T09:07:01;9.50;;;6.43;;
56037;SDS011;41907;47.848;9.000;2024-02-21T09:09:26;14.55;;;10.35;;
56037;SDS011;41907;47.848;9.000;2024-02-21T09:11:53;15.30;;;9.07;;
56037;SDS011;41907;47.848;9.000;2024-02-21T09:14:19;5.60;;;4.70;;
56037;SDS011;41907;47.848;9.000;2024-02-21T09:16:44;8.38;;;4.65;;
56037;SDS011;41907;47.848;9.000;2024-02-21T09:19:09;9.90;;;5.20;;
56037;SDS011;41907;47.848;9.000;2024-02-21T09:21:36;9.55;;;5.28;;
56037;SDS011;41907;47.848;9.000;2024-02-21T09:24:02;8.70;;;4.80;;
56037;SDS011;41907;47.848;9.000;2024-02-21T09:26:28;8.60;;;4.63;;
56037;SDS011;41907;47.848;9.000;2024-02-21T09:28:53;7.32;;;4.63;;
56037;SDS011;41907;47.848;9.000;2024-02-21T09:31:19;12.80;;;7.97;;
56037;SDS011;41907;47.848;9.000;2024-02-21T09:33:44;10.15;;;6.20;;
56037;SDS011;41907;47.848;9.000;2024-02-21T09:36:10;8.02;;;6.55;;
56037;SDS011;41907;47.848;9.000;2024-02-21T09:38:35;8.05;;;4.95;;
56037;SDS011;41907;47.848;9.000;2024-02-21T09:43:29;7.85;;;4.97;;
56037;SDS011;41907;47.848;9.000;2024-02-21T09:45:55;8.65;;;4.85;;
56037;SDS011;41907;47.848;9.000;2024-02-21T09:51:01;12.60;;;7.22;;
56037;SDS011;41907;47.848;9.000;2024-02-21T09:53:27;9.25;;;6.57;;
56037;SDS011;41907;47.848;9.000;2024-02-21T09:55:55;13.48;;;10.15;;
56037;SDS011;41907;47.848;9.000;2024-02-21T09:58:22;12.45;;;6.97;;
56037;SDS011;41907;47.848;9.000;2024-02-21T10:00:49;11.43;;;6.63;;
56037;SDS011;41907;47.848;9.000;2024-02-21T10:03:14;8.38;;;5.85;;
56037;SDS011;41907;47.848;9.000;2024-02-21T10:05:45;13.43;;;6.68;;
56037;SDS011;41907;47.848;9.000;2024-02-21T10:08:14;8.50;;;5.70;;
56037;SDS011;41907;47.848;9.000;2024-02-21T10:10:45;8.82;;;5.55;;
56037;SDS011;41907;47.848;9.000;2024-02-21T10:13:21;10.48;;;5.30;;
56037;SDS011;41907;47.848;9.000;2024-02-21T10:16:01;5.70;;;4.00;;
56037;SDS011;41907;47.848;9.000;2024-02-21T10:18:30;9.02;;;4.70;;
56037;SDS011;41907;47.848;9.000;2024-02-21T10:21:08;10.73;;;5.50;;
56037;SDS011;41907;47.848;9.000;2024-02-21T10:23:43;7.38;;;5.50;;
56037;SDS011;41907;47.848;9.000;2024-02-21T10:26:14;8.55;;;4.65;;
56037;SDS011;41907;47.848;9.000;2024-02-21T10:28:41;10.63;;;4.75;;
56037;SDS011;41907;47.848;9.000;2024-02-21T10:31:11;8.93;;;4.38;;
56037;SDS011;41907;47.848;9.000;2024-02-21T10:33:45;13.88;;;7.10;;
56037;SDS011;41907;47.848;9.000;2024-02-21T10:36:30;7.47;;;4.35;;
56037;SDS011;41907;47.848;9.000;2024-02-21T10:38:56;11.20;;;5.68;;
56037;SDS011;41907;47.848;9.000;2024-02-21T10:41:22;10.68;;;4.65;;
56037;SDS011;41907;47.848;9.000;2024-02-21T10:43:52;8.23;;;5.25;;
56037;SDS011;41907;47.848;9.000;2024-02-21T10:46:19;6.88;;;4.15;;
56037;SDS011;41907;47.848;9.000;2024-02-21T10:48:46;9.85;;;4.85;;
56037;SDS011;41907;47.848;9.000;2024-02-21T10:56:34;4.03;;;3.20;;
56037;SDS011;41907;47.848;9.000;2024-02-21T10:59:02;5.70;;;3.92;;
56037;SDS011;41907;47.848;9.000;2024-02-21T11:01:29;5.88;;;3.50;;
56037;SDS011;41907;47.848;9.000;2024-02-21T11:03:57;5.70;;;3.05;;
56037;SDS011;41907;47.848;9.000;2024-02-21T11:06:25;5.93;;;3.20;;
56037;SDS011;41907;47.848;9.000;2024-02-21T11:08:59;3.05;;;1.95;;
56037;SDS011;41907;47.848;9.000;2024-02-21T11:11:25;2.95;;;1.85;;
56037;SDS011;41907;47.848;9.000;2024-02-21T11:13:50;2.97;;;2.00;;
56037;SDS011;41907;47.848;9.000;2024-02-21T11:16:22;2.63;;;1.83;;
56037;SDS011;41907;47.848;9.000;2024-02-21T11:18:48;3.13;;;1.77;;
56037;SDS011;41907;47.848;9.000;2024-02-21T11:21:14;3.78;;;1.85;;
56037;SDS011;41907;47.848;9.000;2024-02-21T11:23:39;3.50;;;2.25;;
56037;SDS011;41907;47.848;9.000;2024-02-21T11:26:18;3.67;;;2.30;;
56037;SDS011;41907;47.848;9.000;2024-02-21T11:28:55;4.68;;;2.75;;
56037;SDS011;41907;47.848;9.000;2024-02-21T11:31:40;4.40;;;2.35;;
56037;SDS011;41907;47.848;9.000;2024-02-21T11:34:10;3.38;;;2.75;;
56037;SDS011;41907;47.848;9.000;2024-02-21T11:36:36;3.63;;;2.10;;
56037;SDS011;41907;47.848;9.000;2024-02-21T11:39:10;4.50;;;2.10;;
56037;SDS011;41907;47.848;9.000;2024-02-21T11:41:36;5.53;;;2.88;;
56037;SDS011;41907;47.848;9.000;2024-02-21T11:44:01;3.25;;;2.45;;
56037;SDS011;41907;47.848;9.000;2024-02-21T11:46:27;5.60;;;3.22;;
56037;SDS011;41907;47.848;9.000;2024-02-21T11:48:52;3.65;;;2.13;;
56037;SDS011;41907;47.848;9.000;2024-02-21T11:51:21;3.13;;;2.40;;
56037;SDS011;41907;47.848;9.000;2024-02-21T11:53:50;7.03;;;5.90;;
56037;SDS011;41907;47.848;9.000;2024-02-21T11:56:16;7.13;;;2.70;;
56037;SDS011;41907;47.848;9.000;2024-02-21T11:58:41;6.30;;;2.90;;
56037;SDS011;41907;47.848;9.000;2024-02-21T12:01:07;4.50;;;2.50;;
56037;SDS011;41907;47.848;9.000;2024-02-21T12:03:33;4.22;;;2.42;;
56037;SDS011;41907;47.848;9.000;2024-02-21T12:06:01;4.03;;;2.42;;
56037;SDS011;41907;47.848;9.000;2024-02-21T12:08:28;3.85;;;2.40;;
56037;SDS011;41907;47.848;9.000;2024-02-21T12:11:15;2.97;;;2.10;;
56037;SDS011;41907;47.848;9.000;2024-02-21T12:14:01;3.55;;;2.15;;
56037;SDS011;41907;47.848;9.000;2024-02-21T12:16:28;2.97;;;2.15;;
56037;SDS011;41907;47.848;9.000;2024-02-21T12:18:55;4.60;;;2.95;;
56037;SDS011;41907;47.848;9.000;2024-02-21T12:21:25;5.45;;;2.30;;
56037;SDS011;41907;47.848;9.000;2024-02-21T12:23:53;3.47;;;2.20;;
56037;SDS011;41907;47.848;9.000;2024-02-21T12:26:18;2.80;;;1.90;;
56037;SDS011;41907;47.848;9.000;2024-02-21T12:28:43;8.55;;;2.13;;
56037;SDS011;41907;47.848;9.000;2024-02-21T12:31:09;4.35;;;2.40;;
56037;SDS011;41907;47.848;9.000;2024-02-21T12:33:34;2.47;;;1.80;;
56037;SDS011;41907;47.848;9.000;2024-02-21T12:36:00;4.18;;;2.20;;
56037;SDS011;41907;47.848;9.000;2024-02-21T12:38:25;5.47;;;2.20;;
56037;SDS011;41907;47.848;9.000;2024-02-21T12:40:50;6.45;;;3.58;;
56037;SDS011;41907;47.848;9.000;2024-02-21T12:43:16;5.50;;;2.65;;
56037;SDS011;41907;47.848;9.000;2024-02-21T12:45:43;3.53;;;2.30;;
56037;SDS011;41907;47.848;9.000;2024-02-21T12:48:08;5.80;;;2.10;;
56037;SDS011;41907;47.848;9.000;2024-02-21T12:50:34;11.43;;;7.13;;
56037;SDS011;41907;47.848;9.000;2024-02-21T12:52:59;5.97;;;4.13;;
56037;SDS011;41907;47.848;9.000;2024-02-21T12:55:25;5.15;;;2.28;;
56037;SDS011;41907;47.848;9.000;2024-02-21T12:57:50;3.30;;;2.08;;
56037;SDS011;41907;47.848;9.000;2024-02-21T13:00:16;3.97;;;1.98;;
56037;SDS011;41907;47.848;9.000;2024-02-21T13:02:41;6.00;;;2.47;;
56037;SDS011;41907;47.848;9.000;2024-02-21T13:05:07;3.85;;;1.92;;
56037;SDS011;41907;47.848;9.000;2024-02-21T13:07:33;9.90;;;2.38;;
56037;SDS011;41907;47.848;9.000;2024-02-21T13:09:58;3.10;;;1.90;;
56037;SDS011;41907;47.848;9.000;2024-02-21T13:12:24;3.35;;;1.80;;
56037;SDS011;41907;47.848;9.000;2024-02-21T13:14:54;2.60;;;2.10;;
56037;SDS011;41907;47.848;9.000;2024-02-21T13:17:19;3.58;;;2.00;;
56037;SDS011;41907;47.848;9.000;2024-02-21T13:19:47;9.82;;;2.67;;
56037;SDS011;41907;47.848;9.000;2024-02-21T13:22:12;3.10;;;2.08;;
56037;SDS011;41907;47.848;9.000;2024-02-21T13:24:37;4.15;;;2.10;;
56037;SDS011;41907;47.848;9.000;2024-02-21T13:27:03;5.78;;;1.92;;
56037;SDS011;41907;47.848;9.000;2024-02-21T13:29:28;3.53;;;2.10;;
56037;SDS011;41907;47.848;9.000;2024-02-21T13:31:53;3.55;;;2.00;;
56037;SDS011;41907;47.848;9.000;2024-02-21T13:34:19;4.63;;;1.88;;
56037;SDS011;41907;47.848;9.000;2024-02-21T13:36:44;2.60;;;1.77;;
56037;SDS011;41907;47.848;9.000;2024-02-21T13:39:10;2.85;;;1.85;;
56037;SDS011;41907;47.848;9.000;2024-02-21T13:41:40;2.60;;;1.80;;
56037;SDS011;41907;47.848;9.000;2024-02-21T13:44:07;3.10;;;2.20;;
56037;SDS011;41907;47.848;9.000;2024-02-21T13:46:32;2.97;;;1.80;;
56037;SDS011;41907;47.848;9.000;2024-02-21T13:49:02;3.88;;;1.85;;
56037;SDS011;41907;47.848;9.000;2024-02-21T13:51:32;3.97;;;1.90;;
56037;SDS011;41907;47.848;9.000;2024-02-21T13:54:01;3.78;;;1.70;;
56037;SDS011;41907;47.848;9.000;2024-02-21T13:56:26;4.40;;;2.10;;
56037;SDS011;41907;47.848;9.000;2024-02-21T13:58:52;6.22;;;3.20;;
56037;SDS011;41907;47.848;9.000;2024-02-21T14:01:17;8.00;;;3.90;;
56037;SDS011;41907;47.848;9.000;2024-02-21T14:03:43;4.05;;;2.60;;
56037;SDS011;41907;47.848;9.000;2024-02-21T14:06:08;2.67;;;1.70;;
56037;SDS011;41907;47.848;9.000;2024-02-21T14:08:34;3.35;;;2.10;;
56037;SDS011;41907;47.848;9.000;2024-02-21T14:10:59;3.20;;;2.13;;
56037;SDS011;41907;47.848;9.000;2024-02-21T14:13:25;3.55;;;1.98;;
56037;SDS011;41907;47.848;9.000;2024-02-21T14:15:51;4.13;;;1.98;;
56037;SDS011;41907;47.848;9.000;2024-02-21T14:18:16;9.85;;;6.10;;
56037;SDS011;41907;47.848;9.000;2024-02-21T14:20:42;5.32;;;3.10;;
56037;SDS011;41907;47.848;9.000;2024-02-21T14:23:08;3.05;;;1.90;;
56037;SDS011;41907;47.848;9.000;2024-02-21T14:25:33;4.10;;;1.98;;
56037;SDS011;41907;47.848;9.000;2024-02-21T14:27:58;5.63;;;2.08;;
56037;SDS011;41907;47.848;9.000;2024-02-21T14:30:25;3.35;;;1.88;;
56037;SDS011;41907;47.848;9.000;2024-02-21T14:32:51;3.42;;;1.95;;
56037;SDS011;41907;47.848;9.000;2024-02-21T14:35:16;7.68;;;2.38;;
56037;SDS011;41907;47.848;9.000;2024-02-21T14:37:42;3.88;;;1.90;;
56037;SDS011;41907;47.848;9.000;2024-02-21T14:40:07;3.63;;;1.90;;
56037;SDS011;41907;47.848;9.000;2024-02-21T14:42:32;5.60;;;2.60;;
56037;SDS011;41907;47.848;9.000;2024-02-21T14:44:59;4.82;;;2.25;;
56037;SDS011;41907;47.848;9.000;2024-02-21T14:47:29;2.75;;;2.08;;